createdAt,value
2023-05-10T00:00:02.166Z,96064.03
2023-05-10T00:02:28.678Z,96058.91
2023-05-10T00:04:55.150Z,96063.19
2023-05-10T00:07:21.729Z,96062.31
2023-05-10T00:09:48.185Z,96059.00
2023-05-10T00:12:14.583Z,96050.41
2023-05-10T00:14:41.051Z,96053.09
2023-05-10T00:17:07.439Z,96054.81
2023-05-10T00:19:33.931Z,96050.63
2023-05-10T00:22:00.326Z,96036.00
2023-05-10T00:24:26.933Z,96046.31
2023-05-10T00:26:53.393Z,96040.38
2023-05-10T00:29:20.566Z,96041.22
2023-05-10T00:31:47.119Z,96041.22
2023-05-10T00:34:13.658Z,96033.50
2023-05-10T00:36:40.133Z,96036.03
2023-05-10T00:39:07.014Z,96032.63
2023-05-10T00:41:33.662Z,96036.06
2023-05-10T00:44:00.217Z,96037.78
2023-05-10T00:46:26.972Z,96042.91
2023-05-10T00:48:53.664Z,96036.06
2023-05-10T00:51:20.530Z,96037.78
2023-05-10T00:53:47.305Z,96039.50
2023-05-10T00:56:14.086Z,96037.00
2023-05-10T00:58:40.981Z,96034.47
2023-05-10T01:01:08.622Z,96031.94
2023-05-10T01:03:35.661Z,96027.69
2023-05-10T01:06:02.504Z,96031.94
2023-05-10T01:08:29.849Z,96030.97
2023-05-10T01:10:56.464Z,96028.59
2023-05-10T01:13:40.470Z,96031.19
2023-05-10T01:16:07.809Z,96035.50
2023-05-10T01:18:37.400Z,96042.28
2023-05-10T01:21:16.177Z,96042.28
2023-05-10T01:24:03.594Z,96043.31
2023-05-10T01:26:36.420Z,96039.88
2023-05-10T01:29:25.657Z,96043.34
2023-05-10T01:32:10.802Z,96042.44
2023-05-10T01:34:46.175Z,96048.38
2023-05-10T01:37:21.306Z,96051.78
2023-05-10T01:40:07.353Z,96043.41
2023-05-10T01:42:42.510Z,96051.88
2023-05-10T01:45:20.844Z,96049.22
2023-05-10T01:48:03.191Z,96045.03
2023-05-10T01:50:33.590Z,96049.25
2023-05-10T01:53:03.339Z,96045.03
2023-05-10T01:55:33.120Z,96045.00
2023-05-10T01:58:07.115Z,96049.31
2023-05-10T02:00:35.366Z,96040.66
2023-05-10T02:03:07.456Z,96042.59
2023-05-10T02:05:36.342Z,96042.50
2023-05-10T02:08:06.810Z,96037.34
2023-05-10T02:10:36.166Z,96040.84
2023-05-10T02:13:04.213Z,96040.94
2023-05-10T02:15:32.052Z,96048.66
2023-05-10T02:18:01.070Z,96049.56
2023-05-10T02:20:28.203Z,96047.91
2023-05-10T02:22:56.831Z,96045.41
2023-05-10T02:25:25.004Z,96045.47
2023-05-10T02:27:55.072Z,96045.44
2023-05-10T02:30:23.556Z,96043.72
2023-05-10T02:32:51.539Z,96040.31
2023-05-10T02:35:18.511Z,96041.25
2023-05-10T02:37:46.190Z,96043.91
2023-05-10T02:40:13.833Z,96048.22
2023-05-10T02:42:43.181Z,96045.63
2023-05-10T02:45:14.235Z,96034.75
2023-05-10T02:47:40.989Z,96040.81
2023-05-10T02:50:08.278Z,96036.59
2023-05-10T02:52:41.686Z,96053.78
2023-05-10T02:55:10.838Z,96047.81
2023-05-10T02:57:41.742Z,96045.16
2023-05-10T03:00:09.440Z,96051.25
2023-05-10T03:02:37.294Z,96051.34
2023-05-10T03:05:04.399Z,96047.13
2023-05-10T03:07:30.924Z,96047.22
2023-05-10T03:09:57.703Z,96051.41
2023-05-10T03:12:49.096Z,96051.50
2023-05-10T03:15:27.731Z,96050.75
2023-05-10T03:18:10.202Z,96052.66
2023-05-10T03:20:42.348Z,96053.47
2023-05-10T03:23:14.759Z,96050.00
2023-05-10T03:25:42.110Z,96044.91
2023-05-10T03:28:09.808Z,96048.31
2023-05-10T03:30:37.505Z,96051.75
2023-05-10T03:33:07.816Z,96050.25
2023-05-10T03:35:34.895Z,96053.63
2023-05-10T03:38:01.844Z,96048.63
2023-05-10T03:40:33.053Z,96055.63
2023-05-10T03:43:00.373Z,96060.63
2023-05-10T03:45:27.434Z,96064.88
2023-05-10T03:47:54.906Z,96059.75
2023-05-10T03:50:21.928Z,96066.50
2023-05-10T03:52:48.328Z,96058.91
2023-05-10T03:55:14.794Z,96061.47
2023-05-10T03:57:41.647Z,96069.19
2023-05-10T04:00:09.115Z,96059.75
2023-05-10T04:02:35.680Z,96069.94
2023-05-10T04:05:02.719Z,96071.66
2023-05-10T04:07:29.386Z,96075.16
2023-05-10T04:09:55.845Z,96076.88
2023-05-10T04:12:22.399Z,96065.88
2023-05-10T04:14:48.817Z,96072.72
2023-05-10T04:17:15.343Z,96074.44
2023-05-10T04:19:41.792Z,96080.38
2023-05-10T04:22:08.164Z,96082.16
2023-05-10T04:24:34.739Z,96077.13
2023-05-10T04:27:01.477Z,96081.41
2023-05-10T04:29:28.032Z,96080.50
2023-05-10T04:31:56.201Z,96075.38
2023-05-10T04:34:22.666Z,96078.81
2023-05-10T04:36:49.149Z,96081.38
2023-05-10T04:39:15.664Z,96078.75
2023-05-10T04:41:42.086Z,96081.31
2023-05-10T04:44:08.502Z,96079.66
2023-05-10T04:46:35.077Z,96089.06
2023-05-10T04:49:02.022Z,96089.00
2023-05-10T04:51:28.433Z,96086.44
2023-05-10T04:54:05.328Z,96083.16
2023-05-10T04:56:33.503Z,96089.03
2023-05-10T04:59:00.035Z,96087.44
2023-05-10T05:01:26.569Z,96089.16
2023-05-10T05:03:54.068Z,96109.63
2023-05-10T05:06:21.903Z,96098.56
2023-05-10T05:08:50.359Z,96109.66
2023-05-10T05:11:17.946Z,96107.97
2023-05-10T05:13:44.897Z,96111.34
2023-05-10T05:16:12.276Z,96108.78
2023-05-10T05:18:39.216Z,96107.06
2023-05-10T05:21:16.048Z,96119.03
2023-05-10T05:23:42.617Z,96123.31
2023-05-10T05:26:09.193Z,96117.34
2023-05-10T05:28:38.108Z,96123.31
2023-05-10T05:31:06.513Z,96123.34
2023-05-10T05:33:33.002Z,96131.03
2023-05-10T05:36:02.336Z,96131.88
2023-05-10T05:38:28.920Z,96133.53
2023-05-10T05:40:55.401Z,96130.97
2023-05-10T05:43:21.773Z,96136.09
2023-05-10T05:45:48.371Z,96139.47
2023-05-10T05:48:14.750Z,96142.94
2023-05-10T05:50:41.179Z,96142.94
2023-05-10T05:53:07.582Z,96140.38
2023-05-10T05:55:35.011Z,96139.47
2023-05-10T05:58:01.389Z,96146.28
2023-05-10T06:00:28.016Z,96154.00
2023-05-10T06:02:54.616Z,96153.94
2023-05-10T06:05:21.897Z,96147.97
2023-05-10T06:07:49.636Z,96157.38
2023-05-10T06:10:16.249Z,96155.72
2023-05-10T06:12:42.792Z,96164.22
2023-05-10T06:15:10.596Z,96162.53
2023-05-10T06:17:37.010Z,96163.38
2023-05-10T06:20:03.952Z,96156.53
2023-05-10T06:22:30.585Z,96166.75
2023-05-10T06:24:57.116Z,96170.16
2023-05-10T06:27:24.071Z,96176.94
2023-05-10T06:29:52.272Z,96170.06
2023-05-10T06:32:23.026Z,96174.31
2023-05-10T06:34:49.416Z,96178.56
2023-05-10T06:37:15.922Z,96184.50
2023-05-10T06:39:42.351Z,96183.66
2023-05-10T06:42:09.045Z,96184.44
2023-05-10T06:44:35.751Z,96189.56
2023-05-10T06:47:02.140Z,96192.13
2023-05-10T06:49:28.600Z,96186.09
2023-05-10T06:51:56.580Z,96189.47
2023-05-10T06:54:24.007Z,96192.94
2023-05-10T06:56:50.400Z,96193.69
2023-05-10T06:59:17.652Z,96193.69
2023-05-10T07:01:44.216Z,96199.69
2023-05-10T07:04:10.915Z,96200.59
2023-05-10T07:06:37.559Z,96206.53
2023-05-10T07:09:04.067Z,96212.53
2023-05-10T07:11:30.443Z,96209.09
2023-05-10T07:13:57.005Z,96210.81
2023-05-10T07:16:23.500Z,96211.53
2023-05-10T07:18:51.304Z,96216.59
2023-05-10T07:21:17.762Z,96217.38
2023-05-10T07:23:45.258Z,96217.28
2023-05-10T07:26:12.497Z,96209.53
2023-05-10T07:28:39.122Z,96215.38
2023-05-10T07:31:05.772Z,96223.81
2023-05-10T07:33:33.330Z,96226.16
2023-05-10T07:35:59.750Z,96223.56
2023-05-10T07:38:26.100Z,96233.72
2023-05-10T07:40:52.551Z,96231.91
2023-05-10T07:43:18.905Z,96232.69
2023-05-10T07:45:45.309Z,96233.41
2023-05-10T07:48:12.260Z,96235.16
2023-05-10T07:50:38.733Z,96235.03
2023-05-10T07:53:05.077Z,96234.97
2023-05-10T07:55:31.502Z,96234.09
2023-05-10T07:57:58.113Z,96235.88
2023-05-10T08:00:24.461Z,96238.47
2023-05-10T08:02:50.891Z,96242.69
2023-05-10T08:05:17.663Z,96246.13
2023-05-10T08:07:44.230Z,96236.66
2023-05-10T08:10:12.254Z,96245.16
2023-05-10T08:12:39.319Z,96249.44
2023-05-10T08:15:06.671Z,96251.09
2023-05-10T08:17:33.591Z,96255.28
2023-05-10T08:19:59.990Z,96249.25
2023-05-10T08:22:26.982Z,96250.91
2023-05-10T08:24:53.458Z,96243.88
2023-05-10T08:27:19.811Z,96254.09
2023-05-10T08:29:49.991Z,96245.34
2023-05-10T08:32:17.084Z,96254.69
2023-05-10T08:34:43.604Z,96248.50
2023-05-10T08:37:11.409Z,96255.16
2023-05-10T08:39:37.879Z,96248.91
2023-05-10T08:42:05.844Z,96254.81
2023-05-10T08:44:35.296Z,96255.56
2023-05-10T08:47:05.463Z,96251.28
2023-05-10T08:49:33.536Z,96258.13
2023-05-10T08:52:06.212Z,96270.28
2023-05-10T08:54:34.082Z,96267.06
2023-05-10T08:57:00.850Z,96267.94
2023-05-10T08:59:28.356Z,96273.97
2023-05-10T09:01:58.294Z,96274.91
2023-05-10T09:04:25.316Z,96270.59
2023-05-10T09:06:51.849Z,96276.53
2023-05-10T09:09:19.257Z,96271.25
2023-05-10T09:11:46.120Z,96267.84
2023-05-10T09:14:13.532Z,96278.78
2023-05-10T09:16:40.876Z,96274.41
2023-05-10T09:19:08.337Z,96274.38
2023-05-10T09:21:39.089Z,96281.22
2023-05-10T09:24:07.623Z,96281.28
2023-05-10T09:26:36.380Z,96291.56
2023-05-10T09:29:03.881Z,96279.50
2023-05-10T09:31:55.806Z,96286.19
2023-05-10T09:34:30.414Z,96282.53
2023-05-10T09:36:59.209Z,96279.84
2023-05-10T09:39:32.887Z,96283.16
2023-05-10T09:42:04.777Z,96285.66
2023-05-10T09:44:32.174Z,96280.38
2023-05-10T09:46:59.434Z,96281.00
2023-05-10T09:49:26.149Z,96285.09
2023-05-10T09:52:02.970Z,96286.66
2023-05-10T09:54:29.395Z,96277.03
2023-05-10T09:56:56.097Z,96280.59
2023-05-10T09:59:22.506Z,96276.25
2023-05-10T10:01:52.464Z,96280.44
2023-05-10T10:04:21.381Z,96281.31
2023-05-10T10:06:48.001Z,96277.66
2023-05-10T10:09:14.964Z,96272.41
2023-05-10T10:11:42.366Z,96276.44
2023-05-10T10:14:08.953Z,96277.13
2023-05-10T10:16:35.983Z,96275.97
2023-05-10T10:19:02.683Z,96282.63
2023-05-10T10:21:29.313Z,96284.16
2023-05-10T10:23:56.141Z,96283.81
2023-05-10T10:26:23.517Z,96278.28
2023-05-10T10:29:02.531Z,96273.34
2023-05-10T10:31:37.995Z,96272.59
2023-05-10T10:34:07.941Z,96260.66
2023-05-10T10:36:41.822Z,96263.13
2023-05-10T10:39:11.640Z,96262.63
2023-05-10T10:41:59.625Z,96261.25
2023-05-10T10:44:34.216Z,96253.97
2023-05-10T10:47:30.971Z,96254.81
2023-05-10T10:50:06.520Z,96249.44
2023-05-10T10:52:46.114Z,96251.47
2023-05-10T10:55:15.497Z,96252.06
2023-05-10T10:57:42.571Z,96248.03
2023-05-10T11:00:22.649Z,96247.22
2023-05-10T11:02:50.603Z,96250.75
2023-05-10T11:05:40.460Z,96248.16
2023-05-10T11:08:28.706Z,96249.13
2023-05-10T11:11:00.958Z,96239.94
2023-05-10T11:13:51.135Z,96241.63
2023-05-10T11:16:25.262Z,96242.53
2023-05-10T11:18:59.419Z,96237.75
2023-05-10T11:21:26.327Z,96243.75
2023-05-10T11:23:57.723Z,96248.06
2023-05-10T11:26:27.013Z,96253.69
2023-05-10T11:28:59.365Z,96251.84
2023-05-10T11:31:27.987Z,96253.03
2023-05-10T11:33:56.661Z,96255.19
2023-05-10T11:36:26.923Z,96246.47
2023-05-10T11:38:54.484Z,96249.09
2023-05-10T11:41:24.733Z,96248.69
2023-05-10T11:43:52.733Z,96251.56
2023-05-10T11:46:23.835Z,96246.69
2023-05-10T11:48:52.481Z,96246.38
2023-05-10T11:51:23.945Z,96243.91
2023-05-10T11:53:53.437Z,96245.59
2023-05-10T11:56:21.593Z,96240.91
2023-05-10T11:58:57.656Z,96242.53
2023-05-10T12:01:25.889Z,96239.00
2023-05-10T12:03:54.651Z,96243.50
2023-05-10T12:06:22.218Z,96246.13
2023-05-10T12:08:53.424Z,96248.78
2023-05-10T12:11:21.844Z,96247.81
2023-05-10T12:13:48.924Z,96248.00
2023-05-10T12:16:17.256Z,96256.34
2023-05-10T12:18:43.974Z,96254.81
2023-05-10T12:21:11.765Z,96253.22
2023-05-10T12:23:42.125Z,96250.94
2023-05-10T12:26:11.760Z,96248.06
2023-05-10T12:28:39.378Z,96261.44
2023-05-10T12:31:07.080Z,96259.34
2023-05-10T12:33:43.924Z,96271.34
2023-05-10T12:36:12.415Z,96279.19
2023-05-10T12:38:49.521Z,96284.53
2023-05-10T12:41:18.287Z,96279.63
2023-05-10T12:43:46.406Z,96279.81
2023-05-10T12:46:15.116Z,96285.25
2023-05-10T12:48:43.388Z,96288.91
2023-05-10T12:51:12.635Z,96282.44
2023-05-10T12:53:41.434Z,96292.88
2023-05-10T12:56:08.882Z,96294.59
2023-05-10T12:58:36.344Z,96292.91
2023-05-10T13:01:03.248Z,96292.84
2023-05-10T13:03:29.835Z,96293.66
2023-05-10T13:05:56.239Z,96293.81
2023-05-10T13:08:22.643Z,96293.06
2023-05-10T13:10:49.394Z,96295.59
2023-05-10T13:13:16.458Z,96286.22
2023-05-10T13:15:42.915Z,96291.34
2023-05-10T13:18:09.352Z,96288.91
2023-05-10T13:20:35.975Z,96291.63
2023-05-10T13:23:03.480Z,96295.00
2023-05-10T13:25:30.018Z,96291.53
2023-05-10T13:27:56.444Z,96285.41
2023-05-10T13:30:23.066Z,96294.03
2023-05-10T13:32:49.513Z,96290.75
2023-05-10T13:35:16.439Z,96288.09
2023-05-10T13:37:42.806Z,96282.88
2023-05-10T13:40:09.452Z,96292.22
2023-05-10T13:42:35.837Z,96291.19
2023-05-10T13:45:05.415Z,96290.44
2023-05-10T13:47:31.945Z,96286.22
2023-05-10T13:49:58.706Z,96282.72
2023-05-10T13:52:25.370Z,96282.84
2023-05-10T13:54:55.713Z,96293.88
2023-05-10T13:57:22.441Z,96282.88
2023-05-10T13:59:49.060Z,96291.47
2023-05-10T14:02:15.560Z,96284.66
2023-05-10T14:04:42.096Z,96287.31
2023-05-10T14:07:08.880Z,96285.59
2023-05-10T14:09:35.280Z,96285.69
2023-05-10T14:12:01.785Z,96292.72
2023-05-10T14:14:30.082Z,96295.47
2023-05-10T14:16:56.875Z,96286.13
2023-05-10T14:19:23.486Z,96283.66
2023-05-10T14:21:49.909Z,96287.94
2023-05-10T14:24:16.342Z,96288.91
2023-05-10T14:26:42.690Z,96287.25
2023-05-10T14:29:11.504Z,96287.25
2023-05-10T14:31:38.836Z,96290.75
2023-05-10T14:34:05.382Z,96294.16
2023-05-10T14:36:32.710Z,96293.22
2023-05-10T14:38:59.164Z,96290.66
2023-05-10T14:41:25.712Z,96290.69
2023-05-10T14:43:52.328Z,96301.22
2023-05-10T14:46:19.202Z,96294.50
2023-05-10T14:48:45.735Z,96294.50
2023-05-10T14:51:12.273Z,96301.53
2023-05-10T14:53:38.631Z,96309.34
2023-05-10T14:56:05.212Z,96314.44
2023-05-10T14:58:33.953Z,96318.81
2023-05-10T15:01:00.644Z,96320.84
2023-05-10T15:03:27.689Z,96318.44
2023-05-10T15:05:54.652Z,96309.06
2023-05-10T15:08:21.116Z,96307.59
2023-05-10T15:10:47.767Z,96310.31
2023-05-10T15:13:14.170Z,96317.50
2023-05-10T15:15:40.804Z,96318.53
2023-05-10T15:18:07.444Z,96323.03
2023-05-10T15:20:33.951Z,96329.91
2023-05-10T15:23:00.494Z,96328.22
2023-05-10T15:25:27.226Z,96332.50
2023-05-10T15:27:53.654Z,96324.88
2023-05-10T15:30:20.728Z,96332.59
2023-05-10T15:32:48.912Z,96339.56
2023-05-10T15:35:18.898Z,96337.09
2023-05-10T15:37:45.629Z,96335.41
2023-05-10T15:40:12.424Z,96336.22
2023-05-10T15:42:38.933Z,96339.78
2023-05-10T15:45:06.013Z,96341.59
2023-05-10T15:47:32.628Z,96347.69
2023-05-10T15:49:59.165Z,96349.50
2023-05-10T15:52:25.546Z,96351.31
2023-05-10T15:54:51.938Z,96345.41
2023-05-10T15:57:18.367Z,96344.66
2023-05-10T15:59:45.832Z,96350.75
2023-05-10T16:02:12.454Z,96352.47
2023-05-10T16:04:39.080Z,96354.34
2023-05-10T16:07:05.709Z,96356.09
2023-05-10T16:09:32.059Z,96361.25
2023-05-10T16:11:58.487Z,96372.34
2023-05-10T16:14:24.940Z,96364.69
2023-05-10T16:16:51.663Z,96364.69
2023-05-10T16:19:18.423Z,96360.47
2023-05-10T16:21:45.124Z,96357.97
2023-05-10T16:24:12.034Z,96358.88
2023-05-10T16:26:40.972Z,96355.47
2023-05-10T16:29:08.696Z,96362.41
2023-05-10T16:31:35.414Z,96364.13
2023-05-10T16:34:02.180Z,96358.09
2023-05-10T16:36:29.628Z,96361.50
2023-05-10T16:38:56.542Z,96365.81
2023-05-10T16:41:23.249Z,96358.06
2023-05-10T16:43:50.282Z,96361.50
2023-05-10T16:46:16.793Z,96358.13
2023-05-10T16:48:43.472Z,96358.06
2023-05-10T16:51:10.105Z,96367.47
2023-05-10T16:53:36.619Z,96357.19
2023-05-10T16:56:03.607Z,96361.47
2023-05-10T16:58:30.075Z,96354.63
2023-05-10T17:00:56.502Z,96362.28
2023-05-10T17:03:23.331Z,96365.78
2023-05-10T17:05:49.896Z,96366.75
2023-05-10T17:08:16.429Z,96368.50
2023-05-10T17:10:43.053Z,96369.41
2023-05-10T17:13:10.612Z,96372.84
2023-05-10T17:15:37.962Z,96372.78
2023-05-10T17:18:05.012Z,96371.19
2023-05-10T17:20:31.603Z,96370.41
2023-05-10T17:22:58.048Z,96369.63
2023-05-10T17:25:24.467Z,96373.84
2023-05-10T17:27:50.911Z,96378.16
2023-05-10T17:30:22.403Z,96384.34
2023-05-10T17:32:49.038Z,96389.44
2023-05-10T17:35:15.953Z,96392.88
2023-05-10T17:37:44.101Z,96398.97
2023-05-10T17:40:11.418Z,96396.34
2023-05-10T17:42:37.984Z,96397.22
2023-05-10T17:45:04.862Z,96398.94
2023-05-10T17:47:31.512Z,96404.88
2023-05-10T17:49:58.064Z,96414.28
2023-05-10T17:52:24.509Z,96410.88
2023-05-10T17:54:51.139Z,96414.38
2023-05-10T17:57:17.524Z,96399.88
2023-05-10T17:59:44.016Z,96410.09
2023-05-10T18:02:10.673Z,96406.66
2023-05-10T18:04:43.000Z,96407.56
2023-05-10T18:07:09.934Z,96406.69
2023-05-10T18:09:36.309Z,96401.56
2023-05-10T18:12:03.391Z,96420.41
2023-05-10T18:14:40.074Z,96406.69
2023-05-10T18:17:07.571Z,96412.72
2023-05-10T18:19:34.189Z,96412.72
2023-05-10T18:22:00.679Z,96419.69
2023-05-10T18:24:38.421Z,96423.97
2023-05-10T18:27:06.974Z,96429.13
2023-05-10T18:29:33.417Z,96438.59
2023-05-10T18:31:59.854Z,96436.03
2023-05-10T18:34:26.809Z,96438.59
2023-05-10T18:36:53.354Z,96436.84
2023-05-10T18:39:19.988Z,96439.41
2023-05-10T18:41:46.543Z,96440.28
2023-05-10T18:44:13.047Z,96446.38
2023-05-10T18:46:39.548Z,96436.97
2023-05-10T18:49:08.268Z,96447.25
2023-05-10T18:51:34.891Z,96451.56
2023-05-10T18:54:01.390Z,96452.47
2023-05-10T18:56:27.830Z,96451.63
2023-05-10T18:58:54.396Z,96449.97
2023-05-10T19:01:21.174Z,96457.72
2023-05-10T19:03:47.667Z,96457.69
2023-05-10T19:06:14.138Z,96460.34
2023-05-10T19:08:40.561Z,96462.06
2023-05-10T19:11:07.113Z,96463.78
2023-05-10T19:13:33.970Z,96463.84
2023-05-10T19:16:05.387Z,96462.91
2023-05-10T19:18:33.677Z,96470.72
2023-05-10T19:21:03.726Z,96470.72
2023-05-10T19:23:34.397Z,96480.16
2023-05-10T19:26:01.386Z,96469.03
2023-05-10T19:28:28.042Z,96475.91
2023-05-10T19:30:54.633Z,96474.19
2023-05-10T19:33:21.343Z,96475.06
2023-05-10T19:35:51.974Z,96475.91
2023-05-10T19:38:25.139Z,96474.22
2023-05-10T19:40:57.912Z,96479.34
2023-05-10T19:43:28.824Z,96480.25
2023-05-10T19:45:58.926Z,96487.06
2023-05-10T19:48:25.780Z,96474.25
2023-05-10T19:50:53.021Z,96477.72
2023-05-10T19:53:19.520Z,96482.00
2023-05-10T19:55:46.151Z,96479.44
2023-05-10T19:58:12.571Z,96484.56
2023-05-10T20:00:39.065Z,96475.19
2023-05-10T20:03:07.014Z,96480.28
2023-05-10T20:05:35.540Z,96483.72
2023-05-10T20:08:01.995Z,96482.03
2023-05-10T20:10:28.433Z,96481.19
2023-05-10T20:12:54.953Z,96483.75
2023-05-10T20:15:23.055Z,96486.31
2023-05-10T20:17:52.049Z,96484.63
2023-05-10T20:20:20.072Z,96493.19
2023-05-10T20:22:47.929Z,96482.97
2023-05-10T20:25:15.836Z,96483.81
2023-05-10T20:27:42.487Z,96486.38
2023-05-10T20:30:10.301Z,96484.69
2023-05-10T20:32:37.833Z,96486.41
2023-05-10T20:35:05.289Z,96481.28
2023-05-10T20:37:31.818Z,96482.97
2023-05-10T20:39:58.402Z,96483.88
2023-05-10T20:42:24.947Z,96487.28
2023-05-10T20:44:51.604Z,96486.44
2023-05-10T20:47:18.256Z,96482.16
2023-05-10T20:49:44.708Z,96478.72
2023-05-10T20:52:11.550Z,96474.47
2023-05-10T20:54:37.969Z,96478.72
2023-05-10T20:57:04.501Z,96477.88
2023-05-10T20:59:31.068Z,96483.03
2023-05-10T21:01:58.125Z,96467.66
2023-05-10T21:04:25.663Z,96479.63
2023-05-10T21:06:53.005Z,96481.34
2023-05-10T21:09:19.441Z,96471.06
2023-05-10T21:11:46.012Z,96480.47
2023-05-10T21:14:12.542Z,96477.09
2023-05-10T21:16:39.092Z,96470.22
2023-05-10T21:19:07.081Z,96471.06
2023-05-10T21:21:33.825Z,96462.50
2023-05-10T21:24:00.246Z,96463.38
2023-05-10T21:26:26.821Z,96468.50
2023-05-10T21:28:53.374Z,96459.97
2023-05-10T21:31:20.134Z,96466.78
2023-05-10T21:33:46.602Z,96466.78
2023-05-10T21:36:13.102Z,96477.06
2023-05-10T21:38:40.328Z,96470.25
2023-05-10T21:41:07.733Z,96462.53
2023-05-10T21:43:34.148Z,96471.94
2023-05-10T21:46:00.972Z,96461.69
2023-05-10T21:48:27.354Z,96466.00
2023-05-10T21:50:53.715Z,96469.38
2023-05-10T21:53:20.301Z,96466.84
2023-05-10T21:55:46.825Z,96458.31
2023-05-10T21:58:13.366Z,96466.84
2023-05-10T22:00:39.978Z,96472.81
2023-05-10T22:03:06.620Z,96464.28
2023-05-10T22:05:33.298Z,96460.03
2023-05-10T22:08:00.199Z,96459.16
2023-05-10T22:10:26.661Z,96455.75
2023-05-10T22:12:53.125Z,96461.72
2023-05-10T22:15:19.535Z,96463.44
2023-05-10T22:17:45.956Z,96454.03
2023-05-10T22:20:12.720Z,96460.03
2023-05-10T22:22:39.507Z,96464.31
2023-05-10T22:25:07.469Z,96468.56
2023-05-10T22:27:34.623Z,96457.44
2023-05-10T22:30:01.513Z,96462.59
2023-05-10T22:32:28.337Z,96464.31
2023-05-10T22:34:54.926Z,96461.72
2023-05-10T22:37:21.411Z,96454.00
2023-05-10T22:39:48.819Z,96457.47
2023-05-10T22:42:15.856Z,96453.19
2023-05-10T22:44:43.096Z,96454.88
2023-05-10T22:47:09.762Z,96459.19
2023-05-10T22:49:36.440Z,96457.47
2023-05-10T22:52:03.007Z,96454.03
2023-05-10T22:54:29.451Z,96451.50
2023-05-10T22:56:56.456Z,96459.16
2023-05-10T22:59:23.237Z,96459.19
2023-05-10T23:01:49.738Z,96460.03
2023-05-10T23:04:16.167Z,96460.03
2023-05-10T23:06:42.596Z,96457.47
2023-05-10T23:09:09.719Z,96454.09
2023-05-10T23:11:36.352Z,96455.78
2023-05-10T23:14:05.832Z,96458.38
2023-05-10T23:16:32.663Z,96460.94
2023-05-10T23:18:59.259Z,96465.22
2023-05-10T23:21:25.728Z,96469.53
2023-05-10T23:23:52.408Z,96467.81
2023-05-10T23:26:18.984Z,96443.94
2023-05-10T23:28:45.468Z,96467.00
2023-05-10T23:31:11.898Z,96466.97
2023-05-10T23:33:38.326Z,96465.28
2023-05-10T23:36:05.062Z,96460.16
2023-05-10T23:38:31.556Z,96465.28
2023-05-10T23:40:58.061Z,96455.88
2023-05-10T23:43:25.281Z,96452.47
2023-05-10T23:45:56.586Z,96461.88
2023-05-10T23:48:23.495Z,96456.75
2023-05-10T23:50:50.058Z,96465.31
2023-05-10T23:53:16.709Z,96458.47
2023-05-10T23:55:43.443Z,96457.63
2023-05-10T23:58:09.908Z,96455.06
